Time;durP1;ratioP1;P1;durP2;ratioP2;P2;SDS_P1;SDS_P2;PMS_P1;PMS_P2;Temp;Humidity;BMP_temperature;BMP_pressure;BME280_temperature;BME280_humidity;BME280_pressure;Samples;Min_cycle;Max_cycle;Signal;HPM_P1;HPM_P2
2022/11/17 00:00:41;;;;;;;19.38;6.72;;;17.40;99.90;;;;;;5069977;28;20139;-71
2022/11/17 00:03:15;;;;;;;15.27;6.95;;;17.40;99.90;;;;;;5070480;28;20050;-71
2022/11/17 00:05:43;;;;;;;10.70;5.00;;;17.40;99.90;;;;;;5051564;28;20048;-71
2022/11/17 00:08:11;;;;;;;13.25;5.25;;;17.40;99.90;;;;;;5050413;28;20048;-72
2022/11/17 00:10:39;;;;;;;14.60;5.90;;;17.40;99.90;;;;;;5045649;28;20044;-71
2022/11/17 00:15:55;;;;;;;19.58;6.68;;;17.40;99.90;;;;;;5046110;28;20469;-71
2022/11/17 00:21:22;;;;;;;12.73;5.40;;;17.40;99.90;;;;;;5079524;28;20401;-71
2022/11/17 00:23:50;;;;;;;10.52;5.40;;;17.50;99.90;;;;;;5056351;28;20075;-71
2022/11/17 00:26:23;;;;;;;13.95;6.28;;;17.50;99.90;;;;;;5052657;28;20437;-71
2022/11/17 00:29:03;;;;;;;15.05;6.10;;;17.50;99.90;;;;;;5069557;28;20047;-70
2022/11/17 00:34:21;;;;;;;11.77;5.38;;;17.50;99.90;;;;;;5069242;28;20063;-70
2022/11/17 00:36:50;;;;;;;13.50;5.10;;;17.50;99.90;;;;;;5047674;28;20189;-72
2022/11/17 00:39:20;;;;;;;12.50;5.03;;;17.50;99.90;;;;;;5045333;28;20052;-71
2022/11/17 00:41:48;;;;;;;8.40;5.25;;;17.40;99.90;;;;;;5047194;28;20050;-71
2022/11/17 00:44:16;;;;;;;13.10;6.35;;;17.40;99.90;;;;;;5069793;28;20056;-73
2022/11/17 00:46:43;;;;;;;10.38;4.55;;;17.30;99.90;;;;;;5075105;28;20131;-72
2022/11/17 00:49:11;;;;;;;11.40;5.40;;;17.30;99.90;;;;;;5087187;28;20505;-71
2022/11/17 00:51:39;;;;;;;6.05;3.22;;;17.30;99.90;;;;;;5051705;28;20519;-70
2022/11/17 00:54:09;;;;;;;7.45;3.67;;;17.10;99.90;;;;;;5053287;28;20052;-71
2022/11/17 00:56:37;;;;;;;6.22;3.10;;;17.00;99.90;;;;;;5046401;28;20536;-70
2022/11/17 00:59:04;;;;;;;3.88;2.20;;;16.90;99.90;;;;;;5069218;28;20056;-71
2022/11/17 01:01:32;;;;;;;6.97;2.47;;;16.80;99.90;;;;;;5072459;28;20520;-73
2022/11/17 01:04:03;;;;;;;10.48;3.05;;;16.60;99.90;;;;;;5035354;28;20051;-69
2022/11/17 01:06:43;;;;;;;4.68;3.17;;;16.50;99.90;;;;;;5068392;28;20043;-70
2022/11/17 01:09:16;;;;;;;6.15;1.90;;;16.40;99.90;;;;;;5068977;28;20074;-71
2022/11/17 01:11:44;;;;;;;2.63;1.83;;;16.50;99.90;;;;;;5064750;28;20040;-70
2022/11/17 01:14:15;;;;;;;4.15;1.80;;;16.40;99.90;;;;;;5047965;28;20049;-72
2022/11/17 01:16:44;;;;;;;3.20;1.63;;;16.30;99.90;;;;;;5067780;28;20141;-70
2022/11/17 01:19:13;;;;;;;3.15;1.45;;;16.30;99.90;;;;;;5052230;28;20565;-70
2022/11/17 01:21:41;;;;;;;2.97;1.45;;;16.30;99.90;;;;;;5052636;28;20052;-69
2022/11/17 01:24:10;;;;;;;2.05;1.25;;;16.30;99.90;;;;;;5061110;28;20040;-72
2022/11/17 01:26:39;;;;;;;3.17;1.30;;;16.20;99.90;;;;;;5031123;28;20044;-72
2022/11/17 01:29:09;;;;;;;3.30;1.80;;;16.30;99.90;;;;;;5069146;28;20127;-71
2022/11/17 01:31:40;;;;;;;2.97;1.45;;;16.20;99.90;;;;;;5057711;28;20780;-71
2022/11/17 01:34:08;;;;;;;6.63;1.58;;;16.20;99.90;;;;;;5051673;28;20063;-71
2022/11/17 01:39:29;;;;;;;2.88;1.40;;;16.10;99.90;;;;;;5067702;28;20055;-70
2022/11/17 01:41:57;;;;;;;4.05;1.77;;;16.20;99.90;;;;;;5017364;28;20057;-70
2022/11/17 01:44:52;;;;;;;1.42;0.93;;;16.20;99.90;;;;;;5066363;28;20144;-70
2022/11/17 01:47:22;;;;;;;2.83;1.10;;;16.20;99.90;;;;;;5050400;28;20218;-70
2022/11/17 01:49:56;;;;;;;1.48;0.88;;;16.00;99.90;;;;;;5049952;28;20477;-70
2022/11/17 01:52:25;;;;;;;4.05;1.05;;;16.00;99.90;;;;;;5048988;28;20048;-70
2022/11/17 01:54:54;;;;;;;1.83;1.38;;;15.90;99.90;;;;;;5050559;28;20152;-70
2022/11/17 01:57:31;;;;;;;2.30;0.98;;;15.80;99.90;;;;;;5050715;28;20143;-70
2022/11/17 02:00:06;;;;;;;1.42;0.88;;;15.70;99.90;;;;;;5070286;28;20048;-72
2022/11/17 02:02:35;;;;;;;4.85;1.20;;;15.60;99.90;;;;;;5069926;28;20571;-70
2022/11/17 02:05:18;;;;;;;2.63;1.00;;;15.60;99.90;;;;;;5069599;28;20126;-69
2022/11/17 02:07:48;;;;;;;2.88;1.30;;;15.50;99.90;;;;;;5069794;28;20052;-69
2022/11/17 02:10:16;;;;;;;1.17;0.90;;;15.40;99.90;;;;;;5087796;28;20044;-73
2022/11/17 02:12:44;;;;;;;1.90;0.90;;;15.40;99.90;;;;;;5050919;28;20254;-70
2022/11/17 02:15:12;;;;;;;2.05;1.20;;;15.40;99.90;;;;;;5016588;28;20210;-70
2022/11/17 02:17:43;;;;;;;2.10;1.25;;;15.40;99.90;;;;;;5033083;28;20684;-70
2022/11/17 02:20:20;;;;;;;2.25;1.40;;;15.30;99.90;;;;;;5033260;28;20153;-70
2022/11/17 02:22:53;;;;;;;1.55;1.00;;;15.30;99.90;;;;;;5041126;28;20044;-70
2022/11/17 02:26:05;;;;;;;3.25;1.40;;;15.30;99.90;;;;;;5056593;28;20150;-70
2022/11/17 02:28:47;;;;;;;3.70;1.35;;;15.20;99.90;;;;;;5073407;28;20401;-70
2022/11/17 02:31:15;;;;;;;3.95;1.17;;;15.30;99.90;;;;;;5073310;28;20112;-70
2022/11/17 02:34:06;;;;;;;3.53;1.25;;;15.30;99.90;;;;;;5090270;28;20047;-71
2022/11/17 02:36:46;;;;;;;3.72;1.27;;;15.30;99.90;;;;;;5056439;28;20630;-70
2022/11/17 02:39:22;;;;;;;6.22;1.10;;;15.40;99.90;;;;;;5073704;28;20417;-70
2022/11/17 02:41:55;;;;;;;3.67;1.90;;;15.40;99.90;;;;;;5056595;28;20098;-70
2022/11/17 02:44:51;;;;;;;1.85;0.85;;;15.40;99.90;;;;;;5072530;28;20059;-70
2022/11/17 02:47:24;;;;;;;2.70;1.05;;;15.50;99.90;;;;;;5108131;28;20058;-69
2022/11/17 02:50:04;;;;;;;2.60;0.95;;;15.40;99.90;;;;;;5072781;28;20044;-70
2022/11/17 02:52:32;;;;;;;1.38;0.88;;;15.40;99.90;;;;;;5072239;28;20046;-70
2022/11/17 02:55:01;;;;;;;4.57;1.67;;;15.50;99.90;;;;;;5071873;28;20044;-70
2022/11/17 02:57:30;;;;;;;6.32;1.38;;;15.50;99.90;;;;;;5072583;28;20051;-70
2022/11/17 03:00:09;;;;;;;2.38;1.10;;;15.50;99.90;;;;;;5089334;28;20852;-70
2022/11/17 03:02:51;;;;;;;2.17;1.10;;;15.50;99.90;;;;;;5059167;28;20063;-70
2022/11/17 03:05:49;;;;;;;3.78;1.20;;;15.50;99.90;;;;;;5064888;28;20139;-70
2022/11/17 03:08:41;;;;;;;4.45;1.20;;;15.50;99.90;;;;;;5083327;28;20056;-70
2022/11/17 03:11:09;;;;;;;2.22;1.25;;;15.50;99.90;;;;;;5071159;28;20052;-70
2022/11/17 03:13:48;;;;;;;6.13;1.52;;;15.50;99.90;;;;;;5073175;28;20498;-71
2022/11/17 03:16:25;;;;;;;3.00;1.40;;;15.50;99.90;;;;;;5056180;28;20062;-71
2022/11/17 03:19:19;;;;;;;3.42;1.80;;;15.50;99.90;;;;;;5056353;28;20056;-70
2022/11/17 03:21:52;;;;;;;3.08;0.98;;;15.40;99.90;;;;;;5056056;28;20067;-70
2022/11/17 03:24:30;;;;;;;4.28;1.88;;;15.50;99.90;;;;;;5055539;28;20093;-69
2022/11/17 03:27:23;;;;;;;7.50;2.35;;;15.50;99.90;;;;;;5072374;28;20044;-70
2022/11/17 03:29:56;;;;;;;6.07;1.42;;;15.50;99.90;;;;;;5056431;28;20069;-70
2022/11/17 03:32:26;;;;;;;2.28;1.13;;;15.50;99.90;;;;;;5039456;28;20518;-71
2022/11/17 03:35:05;;;;;;;3.90;1.20;;;15.50;99.90;;;;;;5056121;28;20052;-70
2022/11/17 03:37:37;;;;;;;4.13;1.08;;;15.50;99.90;;;;;;5090662;28;20040;-70
2022/11/17 03:40:08;;;;;;;4.43;1.92;;;15.50;99.90;;;;;;5056120;28;20056;-70
2022/11/17 03:42:40;;;;;;;2.95;0.95;;;15.40;99.90;;;;;;5072762;28;20285;-70
2022/11/17 03:45:18;;;;;;;2.35;1.40;;;15.40;99.90;;;;;;5072614;28;20051;-69
2022/11/17 03:47:47;;;;;;;9.50;2.22;;;15.40;99.90;;;;;;5056239;28;20517;-71
2022/11/17 03:50:26;;;;;;;3.60;1.73;;;15.40;99.90;;;;;;5072948;28;20245;-70
2022/11/17 03:52:53;;;;;;;4.32;1.48;;;15.40;99.90;;;;;;5056132;28;20048;-71
2022/11/17 03:55:26;;;;;;;5.22;1.55;;;15.40;99.90;;;;;;5051820;28;20052;-69
2022/11/17 03:58:05;;;;;;;3.20;1.20;;;15.40;99.90;;;;;;5070167;28;20048;-70
2022/11/17 04:00:35;;;;;;;5.75;2.10;;;15.40;99.90;;;;;;5061996;28;20051;-70
2022/11/17 04:03:02;;;;;;;3.60;1.27;;;15.40;99.90;;;;;;5068479;28;20044;-70
2022/11/17 04:05:30;;;;;;;7.78;1.50;;;15.30;99.90;;;;;;5072434;28;20044;-69
2022/11/17 04:07:57;;;;;;;24.27;2.13;;;15.30;99.90;;;;;;5055451;28;20075;-70
2022/11/17 04:10:25;;;;;;;2.50;0.95;;;15.30;99.90;;;;;;5090121;28;20151;-70
2022/11/17 04:15:57;;;;;;;3.28;2.20;;;15.30;99.90;;;;;;5090130;28;20470;-70
2022/11/17 04:18:25;;;;;;;3.63;2.05;;;15.30;99.90;;;;;;5072008;28;20764;-70
2022/11/17 04:20:55;;;;;;;4.25;1.73;;;15.20;99.90;;;;;;5072184;28;20138;-69
2022/11/17 04:23:24;;;;;;;4.82;1.88;;;15.20;99.90;;;;;;5071769;28;20040;-70
2022/11/17 04:28:46;;;;;;;7.95;1.95;;;15.30;99.90;;;;;;5070947;28;20157;-70
2022/11/17 04:31:21;;;;;;;10.60;3.63;;;15.30;99.90;;;;;;5071873;28;20114;-70
2022/11/17 04:34:00;;;;;;;4.82;1.90;;;15.30;99.90;;;;;;5070686;28;20151;-70
2022/11/17 04:36:39;;;;;;;7.00;2.70;;;15.40;99.90;;;;;;5054557;28;20143;-70
2022/11/17 04:39:07;;;;;;;5.82;1.85;;;15.40;99.90;;;;;;5089684;28;20117;-70
2022/11/17 04:41:53;;;;;;;6.82;3.35;;;15.40;99.90;;;;;;5070956;28;20052;-69
2022/11/17 04:44:26;;;;;;;6.93;2.17;;;15.40;99.90;;;;;;5069790;28;20067;-71
2022/11/17 04:46:54;;;;;;;5.50;1.83;;;15.40;99.90;;;;;;5050796;28;20068;-70
2022/11/17 04:49:23;;;;;;;8.90;2.88;;;15.40;99.90;;;;;;5054823;28;20051;-70
2022/11/17 04:51:52;;;;;;;6.53;2.10;;;15.40;99.90;;;;;;5053083;28;20056;-69
2022/11/17 04:54:25;;;;;;;6.57;1.80;;;15.40;99.90;;;;;;5089157;28;20048;-69
2022/11/17 04:56:54;;;;;;;8.18;2.50;;;15.40;99.90;;;;;;5070856;28;20052;-71
2022/11/17 04:59:22;;;;;;;4.35;2.00;;;15.40;99.90;;;;;;5071048;28;20052;-70
2022/11/17 05:01:50;;;;;;;6.18;2.15;;;15.40;99.90;;;;;;5071560;28;20518;-69
2022/11/17 05:05:04;;;;;;;12.23;2.92;;;15.40;99.90;;;;;;5056386;28;20122;-71
2022/11/17 05:07:07;;;;;;;7.13;2.72;;;15.40;99.90;;;;;;5047529;28;20048;-70
2022/11/17 05:09:35;;;;;;;6.57;2.10;;;15.40;99.90;;;;;;5089511;28;20050;-69
2022/11/17 05:14:49;;;;;;;6.67;2.03;;;15.40;99.90;;;;;;5089560;28;20036;-70
2022/11/17 05:17:16;;;;;;;9.65;2.22;;;15.40;99.90;;;;;;5054689;28;20388;-70
2022/11/17 05:19:46;;;;;;;12.68;2.53;;;15.40;99.90;;;;;;5071089;28;20131;-71
2022/11/17 05:25:03;;;;;;;6.80;2.33;;;15.30;99.90;;;;;;5053482;28;20062;-69
2022/11/17 05:27:32;;;;;;;6.93;3.40;;;15.40;99.90;;;;;;5070836;28;20059;-70
2022/11/17 05:30:01;;;;;;;6.18;3.17;;;15.40;99.90;;;;;;5037548;28;20821;-70
2022/11/17 05:32:29;;;;;;;26.80;2.78;;;15.30;99.90;;;;;;5037196;28;20139;-70
2022/11/17 05:34:56;;;;;;;7.38;3.03;;;15.30;99.90;;;;;;5037159;28;20464;-70
2022/11/17 05:37:24;;;;;;;3.50;1.60;;;15.30;99.90;;;;;;5053752;28;20052;-70
2022/11/17 05:39:51;;;;;;;10.55;1.80;;;15.40;99.90;;;;;;5070928;28;20040;-70
2022/11/17 05:42:19;;;;;;;9.32;2.28;;;15.30;99.90;;;;;;5088175;28;20375;-70
2022/11/17 05:44:47;;;;;;;4.72;2.90;;;15.30;99.90;;;;;;5071056;28;20494;-70
2022/11/17 05:47:14;;;;;;;5.22;1.45;;;15.30;99.90;;;;;;5070679;28;20036;-70
2022/11/17 05:49:42;;;;;;;6.10;2.03;;;15.30;99.90;;;;;;5037321;28;20147;-70
2022/11/17 05:52:10;;;;;;;5.70;2.20;;;15.30;99.90;;;;;;5034597;28;20109;-71
2022/11/17 05:54:37;;;;;;;5.47;1.85;;;15.40;99.90;;;;;;5052781;28;20129;-70
2022/11/17 05:57:13;;;;;;;13.98;3.47;;;15.30;99.90;;;;;;5053824;28;20055;-70
2022/11/17 06:00:03;;;;;;;6.93;2.03;;;15.30;99.90;;;;;;5071016;28;20454;-70
2022/11/17 06:02:46;;;;;;;9.82;3.10;;;15.40;99.90;;;;;;5055062;28;20044;-70
2022/11/17 06:05:14;;;;;;;5.47;1.90;;;15.40;99.90;;;;;;5053578;28;20101;-70
2022/11/17 06:07:45;;;;;;;4.28;1.70;;;15.40;99.90;;;;;;5053482;28;20196;-70
2022/11/17 06:10:12;;;;;;;4.38;1.85;;;15.40;99.90;;;;;;5087909;28;20130;-69
2022/11/17 06:12:39;;;;;;;5.80;2.33;;;15.50;99.90;;;;;;5069560;28;20055;-69
2022/11/17 06:15:08;;;;;;;7.60;2.50;;;15.60;99.90;;;;;;5069764;28;20047;-70
2022/11/17 06:17:41;;;;;;;8.38;2.88;;;15.70;99.90;;;;;;5037299;28;20090;-70
2022/11/17 06:20:22;;;;;;;6.50;2.70;;;15.70;99.90;;;;;;5053374;28;20056;-69
2022/11/17 06:22:50;;;;;;;7.10;2.67;;;15.70;99.90;;;;;;5052877;28;20048;-70
2022/11/17 06:25:19;;;;;;;8.13;2.97;;;16.10;99.90;;;;;;5052803;28;20264;-70
2022/11/17 06:27:49;;;;;;;10.75;2.70;;;16.90;99.90;;;;;;5069949;28;20043;-70
2022/11/17 06:30:17;;;;;;;7.07;3.03;;;17.70;99.90;;;;;;5053552;28;20484;-73
2022/11/17 06:32:46;;;;;;;8.10;2.35;;;18.60;99.90;;;;;;5070491;28;20615;-69
2022/11/17 06:35:15;;;;;;;6.78;2.83;;;19.50;99.90;;;;;;5054088;28;20058;-69
2022/11/17 06:37:42;;;;;;;7.38;2.60;;;20.40;99.90;;;;;;5038915;28;20153;-70
2022/11/17 06:40:12;;;;;;;8.90;3.50;;;20.90;99.90;;;;;;5024713;28;20048;-70
2022/11/17 06:45:25;;;;;;;7.07;3.33;;;21.60;99.90;;;;;;5070373;28;20068;-70
2022/11/17 06:47:53;;;;;;;7.28;3.15;;;21.90;99.90;;;;;;5036505;28;20062;-70
2022/11/17 06:50:21;;;;;;;6.03;2.72;;;22.50;99.90;;;;;;5052929;28;20429;-69
2022/11/17 06:52:48;;;;;;;11.25;3.33;;;22.50;99.90;;;;;;5074329;28;20045;-69
2022/11/17 06:55:17;;;;;;;5.97;2.50;;;22.70;99.90;;;;;;5019953;28;20490;-72
2022/11/17 06:57:44;;;;;;;4.28;2.97;;;23.60;99.90;;;;;;5055018;28;20040;-70
2022/11/17 07:00:15;;;;;;;13.80;3.63;;;24.50;99.90;;;;;;5037766;28;20477;-70
2022/11/17 07:02:43;;;;;;;5.72;2.60;;;25.40;99.90;;;;;;5071738;28;20121;-70
2022/11/17 07:05:10;;;;;;;4.93;2.33;;;25.50;99.90;;;;;;5037179;28;20052;-69
2022/11/17 07:07:38;;;;;;;3.42;1.52;;;24.80;99.90;;;;;;5049909;28;20079;-69
2022/11/17 07:10:07;;;;;;;5.07;1.85;;;24.10;99.90;;;;;;5047333;28;20109;-70
2022/11/17 07:12:34;;;;;;;3.80;2.00;;;23.90;99.90;;;;;;5071549;28;20418;-73
2022/11/17 07:15:02;;;;;;;6.53;1.92;;;23.60;99.90;;;;;;5037763;28;20457;-70
2022/11/17 07:17:31;;;;;;;4.45;1.58;;;23.40;99.90;;;;;;5081070;28;20463;-69
2022/11/17 07:19:58;;;;;;;5.70;1.73;;;23.20;99.90;;;;;;5068194;28;20581;-69
2022/11/17 07:22:26;;;;;;;3.95;2.50;;;22.90;99.90;;;;;;5054153;28;20040;-70
2022/11/17 07:24:53;;;;;;;3.63;1.58;;;22.50;99.90;;;;;;5038219;28;20070;-73
2022/11/17 07:27:21;;;;;;;7.72;1.42;;;22.70;99.90;;;;;;5054675;28;20044;-71
2022/11/17 07:29:49;;;;;;;4.85;1.70;;;22.80;99.90;;;;;;5062600;28;20040;-69
2022/11/17 07:32:17;;;;;;;3.03;1.75;;;22.60;99.90;;;;;;5069159;28;20068;-70
2022/11/17 07:34:45;;;;;;;3.22;1.27;;;22.70;99.90;;;;;;5071713;28;20157;-70
2022/11/17 07:37:12;;;;;;;4.07;1.85;;;22.70;99.90;;;;;;5078609;28;20054;-70
2022/11/17 07:39:40;;;;;;;4.07;2.20;;;22.80;99.90;;;;;;5055228;28;20134;-70
2022/11/17 07:42:07;;;;;;;3.70;1.77;;;22.90;99.90;;;;;;5065324;28;20128;-72
2022/11/17 07:44:35;;;;;;;7.95;1.65;;;22.60;99.90;;;;;;5059142;28;20490;-69
2022/11/17 07:47:02;;;;;;;2.67;1.52;;;22.60;99.90;;;;;;5051827;28;20145;-69
2022/11/17 07:49:30;;;;;;;2.35;1.17;;;22.90;99.90;;;;;;5071123;28;20056;-70
2022/11/17 07:51:58;;;;;;;4.57;1.38;;;22.30;99.90;;;;;;5065938;28;20036;-71
2022/11/17 07:54:25;;;;;;;2.33;1.35;;;22.50;99.90;;;;;;5046805;28;20063;-71
2022/11/17 07:56:53;;;;;;;4.32;1.50;;;22.50;99.90;;;;;;5066527;28;20040;-71
2022/11/17 07:59:20;;;;;;;4.47;1.23;;;22.40;99.90;;;;;;5069746;28;20063;-69
2022/11/17 08:01:48;;;;;;;3.50;1.48;;;22.50;99.90;;;;;;5069911;28;20132;-69
2022/11/17 08:04:15;;;;;;;2.53;1.33;;;22.30;99.90;;;;;;5053802;28;20130;-70
2022/11/17 08:06:44;;;;;;;3.08;1.38;;;22.30;99.90;;;;;;5068402;28;20062;-69
2022/11/17 08:09:14;;;;;;;4.20;1.30;;;22.30;99.90;;;;;;5088613;28;20044;-69
2022/11/17 08:11:42;;;;;;;1.90;1.27;;;22.10;99.90;;;;;;5059716;28;20036;-69
2022/11/17 08:14:09;;;;;;;3.47;1.95;;;22.00;99.90;;;;;;5053330;28;20052;-72
2022/11/17 08:16:37;;;;;;;2.47;1.23;;;21.90;99.90;;;;;;5066774;28;20069;-69
2022/11/17 08:19:05;;;;;;;3.65;1.45;;;21.90;99.90;;;;;;5053807;28;20517;-69
2022/11/17 08:21:36;;;;;;;3.60;1.30;;;21.60;99.90;;;;;;5049187;28;20051;-70
2022/11/17 08:24:04;;;;;;;2.35;1.40;;;21.70;99.90;;;;;;5053006;28;20138;-70
2022/11/17 08:26:31;;;;;;;3.17;1.30;;;21.90;99.90;;;;;;5042659;28;20582;-69
2022/11/17 08:29:00;;;;;;;4.38;1.75;;;22.00;99.90;;;;;;5070299;28;20491;-70
2022/11/17 08:31:28;;;;;;;2.83;1.25;;;22.20;99.90;;;;;;5069201;28;20052;-70
2022/11/17 08:33:55;;;;;;;3.65;1.60;;;22.40;99.90;;;;;;5055121;28;20737;-70
2022/11/17 08:36:23;;;;;;;4.20;1.63;;;22.50;99.90;;;;;;5070699;28;20428;-70
2022/11/17 08:38:51;;;;;;;3.42;2.20;;;22.60;99.90;;;;;;5071652;28;20044;-70
2022/11/17 08:41:18;;;;;;;5.47;1.70;;;22.50;99.90;;;;;;5054458;28;20425;-69
2022/11/17 08:43:46;;;;;;;3.60;2.47;;;22.70;99.90;;;;;;5070645;28;20102;-69
2022/11/17 08:46:13;;;;;;;2.00;1.40;;;22.90;99.90;;;;;;5037936;28;20044;-70
2022/11/17 08:48:41;;;;;;;3.83;1.90;;;23.00;99.90;;;;;;5088318;28;20044;-69
2022/11/17 08:51:10;;;;;;;3.70;1.65;;;23.00;99.90;;;;;;5071107;28;20044;-70
2022/11/17 08:53:38;;;;;;;5.18;1.90;;;23.00;99.90;;;;;;5053473;28;20105;-71
2022/11/17 08:56:07;;;;;;;3.58;1.75;;;23.00;99.90;;;;;;5054429;28;20051;-70
2022/11/17 08:58:42;;;;;;;8.07;1.80;;;23.20;99.90;;;;;;5052935;28;20154;-70
2022/11/17 09:01:11;;;;;;;4.40;1.50;;;23.50;99.90;;;;;;5037998;28;20138;-70
2022/11/17 09:03:42;;;;;;;3.38;1.83;;;23.30;99.90;;;;;;5037105;28;20431;-70
2022/11/17 09:06:11;;;;;;;3.92;2.00;;;23.40;99.90;;;;;;5035612;28;20040;-69
2022/11/17 09:08:39;;;;;;;2.45;1.60;;;23.50;99.90;;;;;;5055623;28;20052;-70
2022/11/17 09:11:15;;;;;;;3.55;1.70;;;23.50;99.90;;;;;;5054861;28;20232;-70
2022/11/17 09:13:44;;;;;;;4.10;1.70;;;23.70;99.90;;;;;;5054358;28;20044;-70
2022/11/17 09:16:12;;;;;;;2.97;1.63;;;23.60;99.90;;;;;;5070520;28;20075;-70
2022/11/17 09:18:40;;;;;;;2.47;1.20;;;23.40;99.90;;;;;;5037189;28;20058;-70
2022/11/17 09:21:10;;;;;;;2.53;1.40;;;23.20;99.90;;;;;;5070307;28;20051;-71
2022/11/17 09:23:38;;;;;;;3.50;1.77;;;23.40;99.90;;;;;;5053951;28;20231;-69
2022/11/17 09:26:11;;;;;;;3.00;1.77;;;23.50;99.90;;;;;;5053843;28;20136;-69
2022/11/17 09:28:39;;;;;;;13.05;3.28;;;23.40;99.90;;;;;;5036531;28;20059;-72
2022/11/17 09:31:19;;;;;;;3.22;1.85;;;23.70;99.90;;;;;;5037328;28;20044;-71
2022/11/17 09:33:46;;;;;;;3.83;2.65;;;24.00;99.90;;;;;;5053836;28;20770;-72
2022/11/17 09:36:15;;;;;;;3.35;1.52;;;23.60;99.90;;;;;;5070535;28;20036;-69
2022/11/17 09:38:43;;;;;;;4.55;2.20;;;23.40;99.90;;;;;;5036860;28;20510;-69
2022/11/17 09:41:35;;;;;;;5.93;1.98;;;23.30;99.90;;;;;;5053801;28;20048;-71
2022/11/17 09:44:24;;;;;;;3.90;1.98;;;23.10;99.90;;;;;;5053596;28;20520;-71
2022/11/17 09:47:00;;;;;;;3.45;2.35;;;23.30;99.90;;;;;;5053660;28;20105;-70
2022/11/17 09:50:07;;;;;;;4.57;2.05;;;23.30;99.90;;;;;;5037033;28;20048;-70
2022/11/17 09:52:44;;;;;;;4.57;1.88;;;23.50;99.90;;;;;;5068708;28;20075;-70
2022/11/17 09:55:36;;;;;;;7.95;2.40;;;23.60;99.90;;;;;;5088084;28;20178;-71
2022/11/17 09:58:42;;;;;;;4.88;1.73;;;23.40;99.90;;;;;;5053626;28;20532;-70
2022/11/17 10:01:12;;;;;;;8.18;2.88;;;23.40;99.90;;;;;;5079152;28;20047;-69
2022/11/17 10:03:43;;;;;;;3.15;1.70;;;23.30;99.90;;;;;;5053210;28;20135;-70
2022/11/17 10:06:18;;;;;;;8.68;2.40;;;23.30;99.90;;;;;;5052752;28;20530;-70
2022/11/17 10:08:51;;;;;;;5.18;2.88;;;23.00;99.90;;;;;;5068828;28;20044;-69
2022/11/17 10:11:31;;;;;;;4.75;2.08;;;22.70;99.90;;;;;;5071996;28;20040;-71
2022/11/17 10:14:05;;;;;;;7.00;3.58;;;22.20;99.90;;;;;;5073360;28;20118;-69
2022/11/17 10:16:33;;;;;;;3.55;2.75;;;22.10;99.90;;;;;;5057257;28;20075;-69
2022/11/17 10:19:28;;;;;;;3.55;2.40;;;21.90;99.90;;;;;;5057704;28;20052;-70
2022/11/17 10:22:13;;;;;;;4.35;2.35;;;21.80;99.90;;;;;;5055713;28;20383;-69
2022/11/17 10:24:59;;;;;;;4.28;2.55;;;21.60;99.90;;;;;;5040503;28;20048;-69
2022/11/17 10:27:30;;;;;;;5.18;2.90;;;21.70;99.90;;;;;;5057678;28;20063;-70
2022/11/17 10:30:01;;;;;;;9.25;2.58;;;21.80;99.90;;;;;;5074248;28;20056;-69
2022/11/17 10:32:34;;;;;;;4.80;2.20;;;21.60;99.90;;;;;;5073711;28;20047;-69
2022/11/17 10:35:21;;;;;;;6.13;3.65;;;21.50;99.90;;;;;;5057230;28;20101;-69
2022/11/17 10:38:17;;;;;;;9.98;4.60;;;21.40;99.90;;;;;;5073829;28;20036;-70
2022/11/17 10:40:50;;;;;;;7.65;3.95;;;21.60;99.90;;;;;;5057087;28;20811;-69
2022/11/17 10:43:31;;;;;;;9.25;3.08;;;21.80;99.90;;;;;;5057338;28;20462;-71
2022/11/17 10:46:14;;;;;;;6.97;2.80;;;21.90;99.90;;;;;;5056804;28;20505;-70
2022/11/17 10:49:03;;;;;;;9.23;2.65;;;21.60;99.90;;;;;;5054875;28;20047;-70
2022/11/17 10:51:33;;;;;;;6.75;2.83;;;21.60;99.90;;;;;;5040566;28;20516;-69
2022/11/17 10:54:14;;;;;;;7.10;3.70;;;21.70;99.90;;;;;;5073493;28;20044;-70
2022/11/17 10:56:54;;;;;;;3.80;2.53;;;21.80;99.90;;;;;;5073332;28;20043;-69
2022/11/17 10:59:29;;;;;;;10.57;3.38;;;21.90;99.90;;;;;;5073534;28;20048;-69
2022/11/17 11:01:57;;;;;;;12.52;3.88;;;21.80;99.90;;;;;;5073704;28;20040;-69
2022/11/17 11:04:40;;;;;;;7.93;3.90;;;22.00;99.90;;;;;;5056172;28;20040;-69
2022/11/17 11:07:22;;;;;;;4.57;2.72;;;22.20;99.90;;;;;;5091341;28;20043;-70
2022/11/17 11:10:11;;;;;;;9.00;3.05;;;22.10;99.90;;;;;;5055799;28;20559;-69
2022/11/17 11:13:09;;;;;;;4.70;2.20;;;21.90;99.90;;;;;;5052998;28;20155;-70
2022/11/17 11:15:37;;;;;;;6.00;2.50;;;22.20;99.90;;;;;;5037060;28;20445;-71
2022/11/17 11:18:18;;;;;;;7.30;2.20;;;22.50;99.90;;;;;;5061850;28;20074;-71
2022/11/17 11:21:17;;;;;;;9.52;2.85;;;22.50;99.90;;;;;;5076734;28;20052;-70
2022/11/17 11:23:53;;;;;;;8.48;3.05;;;22.30;99.90;;;;;;5092504;28;20393;-69
2022/11/17 11:26:26;;;;;;;5.25;2.42;;;22.30;99.90;;;;;;5093272;28;20130;-69
2022/11/17 11:29:32;;;;;;;7.45;2.40;;;22.20;99.90;;;;;;5076581;28;20050;-71
2022/11/17 11:32:22;;;;;;;38.40;25.73;;;22.40;99.90;;;;;;5084161;28;20070;-70
2022/11/17 11:35:20;;;;;;;6.32;3.38;;;22.50;99.90;;;;;;5093189;28;20058;-70
2022/11/17 11:37:54;;;;;;;5.32;2.90;;;22.40;99.90;;;;;;5075606;28;20474;-70
2022/11/17 11:40:30;;;;;;;4.82;2.58;;;22.70;99.90;;;;;;5075232;28;20406;-70
2022/11/17 11:43:01;;;;;;;7.40;3.25;;;22.70;99.90;;;;;;5064129;28;20056;-70
2022/11/17 11:45:45;;;;;;;5.43;2.47;;;22.70;99.90;;;;;;5055476;28;20048;-69
2022/11/17 11:48:15;;;;;;;9.55;2.15;;;22.80;99.90;;;;;;5089339;28;20051;-70
2022/11/17 11:51:02;;;;;;;4.68;1.85;;;23.00;99.90;;;;;;5055206;28;20379;-70
2022/11/17 11:53:51;;;;;;;4.03;1.88;;;23.10;99.90;;;;;;5055595;28;20094;-70
2022/11/17 11:56:34;;;;;;;9.93;2.08;;;23.10;99.90;;;;;;5038374;28;20079;-70
2022/11/17 11:59:05;;;;;;;3.67;1.70;;;23.30;99.90;;;;;;5089624;28;20044;-71
2022/11/17 12:01:51;;;;;;;3.17;2.13;;;23.40;99.90;;;;;;5055015;28;20064;-70
2022/11/17 12:04:37;;;;;;;;;;;23.50;99.90;;;;;;5071987;28;20047;-69
2022/11/17 12:07:09;;;;;;;3.10;1.80;;;23.50;99.90;;;;;;5070968;28;19947;-71
2022/11/17 12:09:49;;;;;;;4.15;2.40;;;23.50;99.90;;;;;;5071329;28;20048;-70
2022/11/17 12:12:31;;;;;;;4.20;2.30;;;23.60;99.90;;;;;;5054502;28;20105;-73
2022/11/17 12:15:17;;;;;;;6.22;2.83;;;23.30;99.90;;;;;;5071193;28;20130;-70
2022/11/17 12:17:51;;;;;;;7.03;2.55;;;23.20;99.90;;;;;;5071056;28;20518;-70
2022/11/17 12:20:37;;;;;;;204.73;124.18;;;23.20;99.90;;;;;;5070999;28;20371;-70
2022/11/17 12:23:23;;;;;;;23.48;12.95;;;23.30;99.90;;;;;;5070506;28;20036;-69
2022/11/17 12:25:53;;;;;;;3.70;1.90;;;23.50;99.90;;;;;;5071044;28;20058;-70
2022/11/17 12:28:34;;;;;;;6.15;2.38;;;23.20;99.90;;;;;;5070775;28;20131;-69
2022/11/17 12:31:22;;;;;;;18.98;9.95;;;23.10;99.90;;;;;;5068883;28;20064;-70
2022/11/17 12:33:52;;;;;;;4.78;2.20;;;22.70;99.90;;;;;;5053442;28;20142;-69
2022/11/17 12:36:23;;;;;;;8.15;4.70;;;22.20;99.90;;;;;;5037284;28;20100;-69
2022/11/17 12:38:55;;;;;;;3.60;2.28;;;21.90;99.90;;;;;;5038271;28;20056;-69
2022/11/17 12:41:49;;;;;;;4.53;2.45;;;21.60;99.90;;;;;;5053811;28;20040;-71
2022/11/17 12:44:31;;;;;;;7.93;2.50;;;21.30;99.90;;;;;;5052414;28;20136;-69
2022/11/17 12:47:12;;;;;;;7.30;2.55;;;21.20;99.90;;;;;;5050397;28;20393;-70
2022/11/17 12:50:05;;;;;;;3.65;2.17;;;21.10;99.90;;;;;;5033971;28;20118;-69
2022/11/17 12:52:54;;;;;;;5.68;2.58;;;21.00;99.90;;;;;;5050202;28;20051;-70
2022/11/17 12:55:27;;;;;;;6.70;2.53;;;20.90;99.90;;;;;;5034450;28;20147;-69
2022/11/17 12:58:23;;;;;;;5.32;2.58;;;20.90;99.90;;;;;;5049910;28;20063;-70
2022/11/17 13:01:17;;;;;;;6.25;2.83;;;20.90;99.90;;;;;;5068828;28;20052;-70
2022/11/17 13:04:13;;;;;;;4.35;2.33;;;20.90;99.90;;;;;;5062054;28;20506;-70
2022/11/17 13:07:06;;;;;;;4.93;2.67;;;20.90;99.90;;;;;;5067451;28;20054;-69
2022/11/17 13:09:35;;;;;;;4.97;3.00;;;20.90;99.90;;;;;;5046610;28;20499;-69
2022/11/17 13:12:05;;;;;;;4.95;2.33;;;20.90;99.90;;;;;;5047815;28;20152;-70
2022/11/17 13:14:35;;;;;;;3.88;2.75;;;20.90;99.90;;;;;;5042072;28;20044;-70
2022/11/17 13:17:03;;;;;;;6.60;2.85;;;20.80;99.90;;;;;;5050305;28;20045;-69
2022/11/17 13:19:41;;;;;;;3.78;2.40;;;20.80;99.90;;;;;;5067268;28;20044;-70
2022/11/17 13:22:12;;;;;;;3.72;2.58;;;20.80;99.90;;;;;;5050735;28;20056;-69
2022/11/17 13:24:43;;;;;;;5.55;2.88;;;20.80;99.90;;;;;;5050252;28;20041;-70
2022/11/17 13:27:28;;;;;;;4.63;2.15;;;20.80;99.90;;;;;;5046691;28;20152;-70
2022/11/17 13:30:32;;;;;;;6.45;2.72;;;20.80;99.90;;;;;;5048660;28;20442;-71
2022/11/17 13:33:02;;;;;;;5.05;2.55;;;20.90;99.90;;;;;;4989140;28;20054;-71
2022/11/17 13:35:34;;;;;;;4.15;2.88;;;20.80;99.90;;;;;;5035890;28;20048;-72
2022/11/17 13:38:12;;;;;;;4.90;2.55;;;20.90;99.90;;;;;;5058858;28;20090;-69
2022/11/17 13:40:41;;;;;;;5.78;3.05;;;20.80;99.90;;;;;;5045435;28;20059;-69
2022/11/17 13:43:19;;;;;;;4.20;2.78;;;20.80;99.90;;;;;;5048292;28;20048;-69
2022/11/17 13:45:51;;;;;;;4.45;2.25;;;20.80;99.90;;;;;;5061332;28;20167;-70